createdAt,value
2017-11-08T00:00:52.980Z,1011.50
2017-11-08T00:01:53.031Z,1011.48
2017-11-08T00:02:52.977Z,1011.45
2017-11-08T00:03:53.053Z,1011.46
2017-11-08T00:04:52.993Z,1011.49
2017-11-08T00:05:53.062Z,1011.48
2017-11-08T00:06:52.992Z,1011.58
2017-11-08T00:07:53.076Z,1011.45
2017-11-08T00:08:53.003Z,1011.44
2017-11-08T00:09:53.006Z,1011.49
2017-11-08T00:10:53.099Z,1011.44
2017-11-08T00:11:53.006Z,1011.48
2017-11-08T00:12:53.108Z,1011.51
2017-11-08T00:13:53.017Z,1011.44
2017-11-08T00:14:53.119Z,1011.49
2017-11-08T00:15:53.026Z,1011.50
2017-11-08T00:16:53.137Z,1011.49
2017-11-08T00:17:53.036Z,1011.53
2017-11-08T00:18:53.033Z,1011.49
2017-11-08T00:19:53.036Z,1011.54
2017-11-08T00:20:53.058Z,1011.55
2017-11-08T00:21:53.042Z,1011.49
2017-11-08T00:22:53.079Z,1011.53
2017-11-08T00:23:53.048Z,1011.51
2017-11-08T00:24:53.093Z,1011.50
2017-11-08T00:25:53.055Z,1011.51
2017-11-08T00:26:53.056Z,1011.49
2017-11-08T00:27:53.106Z,1011.47
2017-11-08T00:28:53.059Z,1011.47
2017-11-08T00:29:53.138Z,1011.47
2017-11-08T00:30:53.073Z,1011.49
2017-11-08T00:31:53.131Z,1011.52
2017-11-08T00:32:53.081Z,1011.50
2017-11-08T00:33:53.154Z,1011.49
2017-11-08T00:34:53.079Z,1011.46
2017-11-08T00:35:53.162Z,1011.47
2017-11-08T00:36:53.085Z,1011.51
2017-11-08T00:37:53.096Z,1011.52
2017-11-08T00:38:53.181Z,1011.51
2017-11-08T00:39:53.099Z,1011.46
2017-11-08T00:40:53.194Z,1011.45
2017-11-08T00:41:53.099Z,1011.48
2017-11-08T00:42:53.208Z,1011.46
2017-11-08T00:43:53.110Z,1011.46
2017-11-08T00:44:53.113Z,1011.47
2017-11-08T00:45:53.113Z,1011.49
2017-11-08T00:46:53.137Z,1011.49
2017-11-08T00:47:53.122Z,1011.56
2017-11-08T00:48:53.148Z,1011.52
2017-11-08T00:49:53.129Z,1011.54
2017-11-08T00:50:53.159Z,1011.50
2017-11-08T00:51:53.141Z,1011.53
2017-11-08T00:52:53.185Z,1011.51
2017-11-08T00:53:53.151Z,1011.55
2017-11-08T00:54:53.144Z,1011.50
2017-11-08T00:55:53.145Z,1011.46
2017-11-08T00:56:53.202Z,1011.47
2017-11-08T00:57:53.160Z,1011.46
2017-11-08T00:58:53.221Z,1011.43
2017-11-08T00:59:53.157Z,1011.47
2017-11-08T01:00:53.233Z,1011.46
2017-11-08T01:01:53.166Z,1011.52
2017-11-08T01:02:53.247Z,1011.50
2017-11-08T01:03:53.214Z,1011.46
2017-11-08T01:04:53.260Z,1011.48
2017-11-08T01:05:53.184Z,1011.56
2017-11-08T01:06:53.274Z,1011.52
2017-11-08T01:07:53.203Z,1011.51
2017-11-08T01:08:53.287Z,1011.47
2017-11-08T01:09:53.192Z,1011.47
2017-11-08T01:10:53.196Z,1011.49
2017-11-08T01:11:53.307Z,1011.52
2017-11-08T01:12:53.213Z,1011.49
2017-11-08T01:13:53.320Z,1011.51
2017-11-08T01:14:53.203Z,1011.51
2017-11-08T01:15:53.245Z,1011.46
2017-11-08T01:16:53.215Z,1011.49
2017-11-08T01:17:53.212Z,1011.52
2017-11-08T01:18:53.222Z,1011.50
2017-11-08T01:19:53.255Z,1011.45
2017-11-08T01:20:53.223Z,1011.50
2017-11-08T01:21:53.276Z,1011.50
2017-11-08T01:22:53.237Z,1011.44
2017-11-08T01:23:53.290Z,1011.43
2017-11-08T01:24:53.247Z,1011.49
2017-11-08T01:25:53.242Z,1011.45
2017-11-08T01:26:53.245Z,1011.43
2017-11-08T01:27:53.312Z,1011.46
2017-11-08T01:28:53.250Z,1011.38
2017-11-08T01:29:53.326Z,1011.41
2017-11-08T01:30:53.259Z,1011.35
2017-11-08T01:31:53.340Z,1011.35
2017-11-08T01:32:53.263Z,1011.32
2017-11-08T01:33:53.360Z,1011.26
2017-11-08T01:34:53.272Z,1011.31
2017-11-08T01:35:53.272Z,1011.32
2017-11-08T01:36:53.280Z,1011.31
2017-11-08T01:37:53.289Z,1011.32
2017-11-08T01:38:53.290Z,1011.32
2017-11-08T01:39:53.286Z,1011.38
2017-11-08T01:40:53.415Z,1011.32
2017-11-08T01:41:53.287Z,1011.37
2017-11-08T01:42:53.329Z,1011.35
2017-11-08T01:43:53.307Z,1011.35
2017-11-08T01:44:53.328Z,1011.37
2017-11-08T01:45:53.300Z,1011.33
2017-11-08T01:46:53.341Z,1011.33
2017-11-08T01:47:53.304Z,1011.32
2017-11-08T01:48:53.308Z,1011.39
2017-11-08T01:49:53.317Z,1011.34
2017-11-08T01:50:53.315Z,1011.30
2017-11-08T01:51:53.369Z,1011.32
2017-11-08T01:52:53.323Z,1011.37
2017-11-08T01:53:53.388Z,1011.33
2017-11-08T01:54:53.326Z,1011.33
2017-11-08T01:55:53.400Z,1011.37
2017-11-08T01:56:53.331Z,1011.37
2017-11-08T01:57:53.415Z,1011.43
2017-11-08T01:58:53.345Z,1011.41
2017-11-08T01:59:53.425Z,1011.44
2017-11-08T02:00:53.346Z,1011.41
2017-11-08T02:01:53.441Z,1011.41
2017-11-08T02:02:53.352Z,1011.39
2017-11-08T02:03:53.453Z,1011.46
2017-11-08T02:04:53.357Z,1011.40
2017-11-08T02:05:53.468Z,1011.42
2017-11-08T02:06:53.372Z,1011.41
2017-11-08T02:07:53.379Z,1011.42
2017-11-08T02:08:53.371Z,1011.41
2017-11-08T02:09:53.375Z,1011.42
2017-11-08T02:10:53.378Z,1011.42
2017-11-08T02:11:53.379Z,1011.42
2017-11-08T02:12:53.387Z,1011.53
2017-11-08T02:13:53.391Z,1011.45
2017-11-08T02:14:53.426Z,1011.54
2017-11-08T02:15:53.394Z,1011.45
2017-11-08T02:16:53.440Z,1011.48
2017-11-08T02:17:53.398Z,1011.49
2017-11-08T02:18:53.455Z,1011.57
2017-11-08T02:19:53.410Z,1011.54
2017-11-08T02:20:53.466Z,1011.54
2017-11-08T02:21:53.410Z,1011.56
2017-11-08T02:22:53.482Z,1011.52
2017-11-08T02:23:53.420Z,1011.52
2017-11-08T02:24:53.491Z,1011.56
2017-11-08T02:25:53.424Z,1011.56
2017-11-08T02:26:53.426Z,1011.51
2017-11-08T02:27:53.516Z,1011.53
2017-11-08T02:28:53.440Z,1011.53
2017-11-08T02:29:53.524Z,1011.54
2017-11-08T02:30:53.472Z,1011.60
2017-11-08T02:31:53.539Z,1011.57
2017-11-08T02:32:53.443Z,1011.64
2017-11-08T02:33:53.551Z,1011.63
2017-11-08T02:34:53.447Z,1011.63
2017-11-08T02:35:53.459Z,1011.62
2017-11-08T02:36:53.458Z,1011.64
2017-11-08T02:37:53.459Z,1011.62
2017-11-08T02:38:53.464Z,1011.63
2017-11-08T02:39:53.480Z,1011.64
2017-11-08T02:40:53.474Z,1011.66
2017-11-08T02:41:53.493Z,1011.68
2017-11-08T02:42:53.493Z,1011.66
2017-11-08T02:43:53.518Z,1011.61
2017-11-08T02:44:53.479Z,1011.57
2017-11-08T02:45:53.484Z,1011.52
2017-11-08T02:46:53.537Z,1011.49
2017-11-08T02:47:53.490Z,1011.49
2017-11-08T02:48:53.550Z,1011.42
2017-11-08T02:49:53.544Z,1011.45
2017-11-08T02:50:53.501Z,1011.38
2017-11-08T02:51:53.505Z,1011.43
2017-11-08T02:52:53.515Z,1011.39
2017-11-08T02:53:53.587Z,1011.29
2017-11-08T02:54:53.522Z,1011.19
2017-11-08T02:55:53.598Z,1011.23
2017-11-08T02:56:53.522Z,1011.14
2017-11-08T02:57:53.527Z,1011.15
2017-11-08T02:58:53.622Z,1011.16
2017-11-08T02:59:53.527Z,1011.18
2017-11-08T03:00:53.631Z,1011.20
2017-11-08T03:01:53.538Z,1011.15
2017-11-08T03:02:53.650Z,1011.10
2017-11-08T03:03:53.542Z,1011.12
2017-11-08T03:04:53.561Z,1011.06
2017-11-08T03:05:53.549Z,1011.06
2017-11-08T03:06:53.672Z,1011.09
2017-11-08T03:07:53.554Z,1011.09
2017-11-08T03:08:53.557Z,1011.08
2017-11-08T03:09:53.594Z,1011.03
2017-11-08T03:10:53.566Z,1011.01
2017-11-08T03:11:53.609Z,1011.00
2017-11-08T03:12:53.576Z,1010.99
2017-11-08T03:13:53.618Z,1011.04
2017-11-08T03:14:53.573Z,1010.99
2017-11-08T03:15:53.631Z,1011.01
2017-11-08T03:16:53.578Z,1010.98
2017-11-08T03:17:53.657Z,1010.99
2017-11-08T03:18:53.593Z,1011.03
2017-11-08T03:19:53.676Z,1011.09
2017-11-08T03:20:53.600Z,1011.05
2017-11-08T03:21:53.678Z,1011.07
2017-11-08T03:22:53.597Z,1011.03
2017-11-08T03:23:53.699Z,1011.03
2017-11-08T03:24:53.604Z,1011.06
2017-11-08T03:25:53.605Z,1011.09
2017-11-08T03:26:53.626Z,1011.08
2017-11-08T03:27:53.615Z,1011.09
2017-11-08T03:28:53.617Z,1011.12
2017-11-08T03:29:54.657Z,1011.11
2017-11-08T03:30:53.619Z,1011.06
2017-11-08T03:31:53.700Z,1011.06
2017-11-08T03:32:53.630Z,1011.06
2017-11-08T03:33:53.711Z,1011.07
2017-11-08T03:34:53.632Z,1010.99
2017-11-08T03:35:53.727Z,1010.99
2017-11-08T03:36:53.641Z,1010.94
2017-11-08T03:37:53.737Z,1011.02
2017-11-08T03:38:53.651Z,1010.95
2017-11-08T03:39:53.752Z,1010.92
2017-11-08T03:40:53.654Z,1010.89
2017-11-08T03:41:53.763Z,1010.87
2017-11-08T03:42:53.666Z,1010.88
2017-11-08T03:43:53.679Z,1010.90
2017-11-08T03:44:53.664Z,1010.92
2017-11-08T03:45:53.693Z,1010.91
2017-11-08T03:46:53.667Z,1010.98
2017-11-08T03:47:53.705Z,1010.99
2017-11-08T03:48:53.678Z,1010.95
2017-11-08T03:49:53.718Z,1010.97
2017-11-08T03:50:53.682Z,1010.93
2017-11-08T03:51:53.681Z,1010.96
2017-11-08T03:52:53.700Z,1010.91
2017-11-08T03:53:53.702Z,1010.95
2017-11-08T03:54:53.749Z,1011.00
2017-11-08T03:55:53.727Z,1010.96
2017-11-08T03:56:53.763Z,1010.99
2017-11-08T03:57:53.734Z,1010.99
2017-11-08T03:58:53.775Z,1010.98
2017-11-08T03:59:53.711Z,1010.96
2017-11-08T04:00:53.794Z,1010.93
2017-11-08T04:01:53.714Z,1010.95
2017-11-08T04:02:53.725Z,1010.95
2017-11-08T04:03:53.815Z,1010.98
2017-11-08T04:04:53.731Z,1010.95
2017-11-08T04:05:53.825Z,1010.93
2017-11-08T04:06:53.753Z,1010.92
2017-11-08T04:07:53.838Z,1010.92
2017-11-08T04:08:53.736Z,1010.88
2017-11-08T04:09:53.853Z,1010.90
2017-11-08T04:10:53.744Z,1010.90
2017-11-08T04:11:53.769Z,1010.92
2017-11-08T04:12:53.747Z,1010.96
2017-11-08T04:13:53.787Z,1010.96
2017-11-08T04:14:53.761Z,1010.98
2017-11-08T04:15:53.790Z,1011.04
2017-11-08T04:16:53.761Z,1011.00
2017-11-08T04:17:53.801Z,1010.97
2017-11-08T04:18:53.769Z,1011.00
2017-11-08T04:19:53.818Z,1011.01
2017-11-08T04:20:53.792Z,1011.08
2017-11-08T04:21:53.831Z,1011.10
2017-11-08T04:22:53.779Z,1011.07
2017-11-08T04:23:53.838Z,1011.12
2017-11-08T04:24:53.785Z,1011.06
2017-11-08T04:25:53.855Z,1011.08
2017-11-08T04:26:53.790Z,1011.12
2017-11-08T04:27:53.866Z,1011.07
2017-11-08T04:28:53.830Z,1011.08
2017-11-08T04:29:53.885Z,1011.12
2017-11-08T04:30:53.808Z,1011.10
2017-11-08T04:31:53.898Z,1011.17
2017-11-08T04:32:53.809Z,1011.20
2017-11-08T04:33:53.921Z,1011.17
2017-11-08T04:34:53.817Z,1011.14
2017-11-08T04:35:53.926Z,1011.22
2017-11-08T04:36:53.831Z,1011.15
2017-11-08T04:37:53.938Z,1011.17
2017-11-08T04:38:53.865Z,1011.14
2017-11-08T04:39:53.847Z,1011.17
2017-11-08T04:40:53.837Z,1011.19
2017-11-08T04:41:53.865Z,1011.18
2017-11-08T04:42:53.836Z,1011.12
2017-11-08T04:43:53.877Z,1011.19
2017-11-08T04:44:53.846Z,1011.13
2017-11-08T04:45:55.322Z,1011.22
2017-11-08T04:46:53.862Z,1011.19
2017-11-08T04:47:53.901Z,1011.21
2017-11-08T04:48:53.854Z,1011.25
2017-11-08T04:49:53.917Z,1011.23
2017-11-08T04:50:53.879Z,1011.19
2017-11-08T04:51:53.939Z,1011.23
2017-11-08T04:52:53.877Z,1011.20
2017-11-08T04:53:53.869Z,1011.16
2017-11-08T04:54:53.873Z,1011.15
2017-11-08T04:55:53.881Z,1011.09
2017-11-08T04:56:53.890Z,1011.05
2017-11-08T04:57:53.975Z,1011.12
2017-11-08T04:58:53.891Z,1011.14
2017-11-08T04:59:53.990Z,1011.22
2017-11-08T05:00:53.892Z,1011.22
2017-11-08T05:01:53.999Z,1011.28
2017-11-08T05:02:53.896Z,1011.28
2017-11-08T05:03:54.009Z,1011.29
2017-11-08T05:04:53.908Z,1011.28
2017-11-08T05:05:53.925Z,1011.24
2017-11-08T05:06:53.912Z,1011.20
2017-11-08T05:07:53.939Z,1011.16
2017-11-08T05:08:53.941Z,1011.23
2017-11-08T05:09:53.965Z,1011.21
2017-11-08T05:10:53.933Z,1011.23
2017-11-08T05:11:53.965Z,1011.26
2017-11-08T05:12:53.927Z,1011.23
2017-11-08T05:13:53.985Z,1011.28
2017-11-08T05:14:53.935Z,1011.29
2017-11-08T05:15:53.991Z,1011.36
2017-11-08T05:16:53.941Z,1011.39
2017-11-08T05:17:54.005Z,1011.30
2017-11-08T05:18:53.946Z,1011.30
2017-11-08T05:19:54.031Z,1011.34
2017-11-08T05:20:53.955Z,1011.20
2017-11-08T05:21:54.029Z,1011.25
2017-11-08T05:22:53.958Z,1011.26
2017-11-08T05:23:53.958Z,1011.35
2017-11-08T05:24:53.959Z,1011.35
2017-11-08T05:25:54.060Z,1011.31
2017-11-08T05:26:53.969Z,1011.32
2017-11-08T05:27:54.075Z,1011.31
2017-11-08T05:28:53.982Z,1011.30
2017-11-08T05:29:54.094Z,1011.27
2017-11-08T05:30:53.984Z,1011.20
2017-11-08T05:31:54.028Z,1011.09
2017-11-08T05:32:53.987Z,1011.01
2017-11-08T05:33:53.989Z,1010.97
2017-11-08T05:34:53.993Z,1010.97
2017-11-08T05:35:54.031Z,1010.98
2017-11-08T05:36:54.006Z,1011.00
2017-11-08T05:37:54.146Z,1010.99
2017-11-08T05:38:54.008Z,1011.02
2017-11-08T05:39:54.055Z,1010.95
2017-11-08T05:40:54.008Z,1010.96
2017-11-08T05:41:54.104Z,1010.96
2017-11-08T05:42:54.019Z,1010.95
2017-11-08T05:43:54.116Z,1010.94
2017-11-08T05:44:55.327Z,1010.90
2017-11-08T05:45:54.130Z,1010.95
2017-11-08T05:46:54.052Z,1010.94
2017-11-08T05:47:54.144Z,1010.91
2017-11-08T05:48:54.039Z,1010.86
2017-11-08T05:49:54.155Z,1010.83
2017-11-08T05:50:54.049Z,1010.81
2017-11-08T05:51:54.073Z,1010.83
2017-11-08T05:52:54.048Z,1010.90
2017-11-08T05:53:54.084Z,1010.94
2017-11-08T05:54:54.052Z,1011.03
2017-11-08T05:55:54.056Z,1010.95
2017-11-08T05:56:54.066Z,1010.97
2017-11-08T05:57:54.065Z,1010.99
2017-11-08T05:58:54.067Z,1010.98
2017-11-08T05:59:54.064Z,1011.04
2017-11-08T06:00:54.123Z,1011.03
2017-11-08T06:01:54.153Z,1011.14
2017-11-08T06:02:54.075Z,1011.14
2017-11-08T06:03:54.150Z,1011.12
2017-11-08T06:04:54.121Z,1011.17
2017-11-08T06:05:55.194Z,1011.15
2017-11-08T06:06:54.091Z,1011.16
2017-11-08T06:07:55.295Z,1011.17
2017-11-08T06:08:54.096Z,1011.18
2017-11-08T06:09:54.151Z,1011.22
2017-11-08T06:10:54.111Z,1011.27
2017-11-08T06:11:54.164Z,1011.32
2017-11-08T06:12:54.131Z,1011.37
2017-11-08T06:13:54.173Z,1011.27
2017-11-08T06:14:54.109Z,1011.23
2017-11-08T06:15:55.221Z,1011.21
2017-11-08T06:16:54.146Z,1011.31
2017-11-08T06:17:54.213Z,1011.35
2017-11-08T06:18:54.125Z,1011.30
2017-11-08T06:19:54.216Z,1011.32
2017-11-08T06:20:54.128Z,1011.28
2017-11-08T06:21:54.233Z,1011.20
2017-11-08T06:22:54.135Z,1011.21
2017-11-08T06:23:54.143Z,1011.21
2017-11-08T06:24:55.175Z,1011.22
2017-11-08T06:25:54.145Z,1011.28
2017-11-08T06:26:54.168Z,1011.30
2017-11-08T06:27:54.155Z,1011.23
2017-11-08T06:28:54.189Z,1011.24
2017-11-08T06:29:54.159Z,1011.18
2017-11-08T06:30:54.210Z,1011.23
2017-11-08T06:31:54.161Z,1011.32
2017-11-08T06:32:54.173Z,1011.33
2017-11-08T06:33:54.180Z,1011.40
2017-11-08T06:34:54.170Z,1011.45
2017-11-08T06:35:54.236Z,1011.45
2017-11-08T06:36:54.176Z,1011.50
2017-11-08T06:37:54.255Z,1011.47
2017-11-08T06:38:54.190Z,1011.50
2017-11-08T06:39:54.189Z,1011.45
2017-11-08T06:40:54.286Z,1011.54
2017-11-08T06:41:54.192Z,1011.56
2017-11-08T06:42:54.282Z,1011.57
2017-11-08T06:43:54.196Z,1011.54
2017-11-08T06:44:54.294Z,1011.54
2017-11-08T06:45:54.243Z,1011.52
2017-11-08T06:46:54.316Z,1011.53
2017-11-08T06:47:54.222Z,1011.54
2017-11-08T06:48:54.298Z,1011.51
2017-11-08T06:49:54.220Z,1011.49
2017-11-08T06:50:54.221Z,1011.56
2017-11-08T06:51:54.324Z,1011.62
2017-11-08T06:52:54.231Z,1011.70
2017-11-08T06:53:58.970Z,1011.74
2017-11-08T06:54:54.228Z,1011.74
2017-11-08T06:55:54.275Z,1011.73
2017-11-08T06:56:54.243Z,1011.74
2017-11-08T06:57:55.319Z,1011.70
2017-11-08T06:58:54.247Z,1011.70
2017-11-08T06:59:56.411Z,1011.64
2017-11-08T07:00:54.256Z,1011.67
2017-11-08T07:01:56.372Z,1011.66
2017-11-08T07:02:54.258Z,1011.64
2017-11-08T07:03:56.374Z,1011.70
2017-11-08T07:04:54.260Z,1011.73
2017-11-08T07:05:54.339Z,1011.73
2017-11-08T07:06:54.262Z,1011.70
2017-11-08T07:07:54.356Z,1011.75
2017-11-08T07:08:54.285Z,1011.77
2017-11-08T07:09:54.291Z,1011.82
2017-11-08T07:10:54.372Z,1011.89
2017-11-08T07:11:54.281Z,1011.83
2017-11-08T07:12:55.328Z,1011.92
2017-11-08T07:13:54.294Z,1011.87
2017-11-08T07:14:54.418Z,1011.85
2017-11-08T07:15:54.294Z,1011.80
2017-11-08T07:16:55.335Z,1011.80
2017-11-08T07:17:54.299Z,1011.86
2017-11-08T07:18:54.328Z,1011.86
2017-11-08T07:19:54.305Z,1011.93
2017-11-08T07:20:54.308Z,1011.96
2017-11-08T07:21:54.348Z,1011.93
2017-11-08T07:22:54.318Z,1011.99
2017-11-08T07:23:54.383Z,1011.99
2017-11-08T07:24:54.320Z,1012.03
2017-11-08T07:25:54.376Z,1012.02
2017-11-08T07:26:54.350Z,1012.03
2017-11-08T07:27:54.362Z,1012.09
2017-11-08T07:28:54.330Z,1012.13
2017-11-08T07:29:55.400Z,1012.11
2017-11-08T07:30:54.336Z,1012.15
2017-11-08T07:31:54.351Z,1012.13
2017-11-08T07:32:54.394Z,1012.17
2017-11-08T07:33:54.346Z,1012.20
2017-11-08T07:34:54.417Z,1012.20
2017-11-08T07:35:54.353Z,1012.24
2017-11-08T07:36:54.422Z,1012.19
2017-11-08T07:37:54.358Z,1012.20
2017-11-08T07:38:54.439Z,1012.30
2017-11-08T07:39:54.380Z,1012.34
2017-11-08T07:40:54.450Z,1012.37
2017-11-08T07:41:54.369Z,1012.32
2017-11-08T07:42:54.459Z,1012.26
2017-11-08T07:43:54.382Z,1012.20
2017-11-08T07:44:54.379Z,1012.12
2017-11-08T07:45:54.485Z,1012.03
2017-11-08T07:46:54.385Z,1011.91
2017-11-08T07:47:54.495Z,1011.89
2017-11-08T07:48:54.413Z,1011.93
2017-11-08T07:49:56.462Z,1011.93
2017-11-08T07:50:54.396Z,1011.92
2017-11-08T07:51:54.421Z,1012.00
2017-11-08T07:52:54.401Z,1011.94
2017-11-08T07:53:54.407Z,1011.89
2017-11-08T07:54:54.412Z,1011.96
2017-11-08T07:55:54.448Z,1011.93
2017-11-08T07:56:54.412Z,1011.90
2017-11-08T07:57:55.493Z,1011.91
2017-11-08T07:58:54.420Z,1011.97
2017-11-08T07:59:54.489Z,1012.04
2017-11-08T08:00:54.432Z,1012.14
2017-11-08T08:01:54.491Z,1012.14
2017-11-08T08:02:54.429Z,1012.18
2017-11-08T08:03:54.477Z,1012.28
2017-11-08T08:04:54.439Z,1012.28
2017-11-08T08:05:54.514Z,1012.23
2017-11-08T08:06:54.445Z,1012.22
2017-11-08T08:07:54.529Z,1012.19
2017-11-08T08:08:54.473Z,1012.24
2017-11-08T08:09:54.544Z,1012.25
2017-11-08T08:10:54.453Z,1012.30
2017-11-08T08:11:54.555Z,1012.31
2017-11-08T08:12:54.482Z,1012.29
2017-11-08T08:13:54.570Z,1012.31
2017-11-08T08:14:54.487Z,1012.28
2017-11-08T08:15:55.504Z,1012.26
2017-11-08T08:16:54.481Z,1012.26
2017-11-08T08:17:54.509Z,1012.31
2017-11-08T08:18:54.501Z,1012.32
2017-11-08T08:19:54.511Z,1012.39
2017-11-08T08:20:54.482Z,1012.39
2017-11-08T08:21:54.492Z,1012.42
2017-11-08T08:22:54.529Z,1012.39
2017-11-08T08:23:54.494Z,1012.39
2017-11-08T08:24:54.575Z,1012.42
2017-11-08T08:25:54.508Z,1012.46
2017-11-08T08:26:54.558Z,1012.53
2017-11-08T08:27:54.505Z,1012.52
2017-11-08T08:28:54.578Z,1012.54
2017-11-08T08:29:54.511Z,1012.55
2017-11-08T08:30:55.617Z,1012.52
2017-11-08T08:31:54.519Z,1012.47
2017-11-08T08:32:55.627Z,1012.55
2017-11-08T08:33:54.544Z,1012.56
2017-11-08T08:35:05.464Z,1012.53
2017-11-08T08:35:54.536Z,1012.55
2017-11-08T08:36:59.576Z,1012.53
2017-11-08T08:37:54.538Z,1012.52
2017-11-08T08:38:54.535Z,1012.57
2017-11-08T08:39:54.648Z,1012.62
2017-11-08T08:40:54.592Z,1012.61
2017-11-08T08:41:54.665Z,1012.58
2017-11-08T08:42:54.545Z,1012.56
2017-11-08T08:43:54.592Z,1012.57
2017-11-08T08:44:54.560Z,1012.48
2017-11-08T08:45:55.877Z,1012.52
2017-11-08T08:46:54.562Z,1012.50
2017-11-08T08:47:54.605Z,1012.47
2017-11-08T08:48:54.570Z,1012.56
2017-11-08T08:49:54.607Z,1012.57
2017-11-08T08:50:54.616Z,1012.62
2017-11-08T08:51:54.689Z,1012.62
2017-11-08T08:52:54.590Z,1012.58
2017-11-08T08:53:54.638Z,1012.67
2017-11-08T08:54:54.581Z,1012.66
2017-11-08T08:55:59.612Z,1012.71
2017-11-08T08:56:54.588Z,1012.74
2017-11-08T08:57:54.671Z,1012.76
2017-11-08T08:58:54.601Z,1012.77
2017-11-08T08:59:54.682Z,1012.77
2017-11-08T09:00:54.607Z,1012.70
2017-11-08T09:01:54.693Z,1012.70
2017-11-08T09:02:54.609Z,1012.77
2017-11-08T09:03:54.630Z,1012.75
2017-11-08T09:04:54.620Z,1012.72
2017-11-08T09:05:56.666Z,1012.74
2017-11-08T09:06:54.627Z,1012.74
2017-11-08T09:07:54.735Z,1012.78
2017-11-08T09:08:54.622Z,1012.76
2017-11-08T09:09:54.747Z,1012.77
2017-11-08T09:10:54.638Z,1012.78
2017-11-08T09:11:54.657Z,1012.84
2017-11-08T09:12:54.642Z,1012.90
2017-11-08T09:13:54.777Z,1012.92
2017-11-08T09:14:54.646Z,1012.92
2017-11-08T09:15:54.701Z,1012.96
2017-11-08T09:16:54.652Z,1012.99
2017-11-08T09:17:55.720Z,1013.01
2017-11-08T09:18:54.662Z,1012.95
2017-11-08T09:19:54.709Z,1013.01
2017-11-08T09:20:54.660Z,1012.94
2017-11-08T09:21:54.728Z,1012.90
2017-11-08T09:22:54.681Z,1012.86
2017-11-08T09:23:54.761Z,1012.84
2017-11-08T09:24:54.671Z,1012.79
2017-11-08T09:25:54.672Z,1012.72
2017-11-08T09:26:54.756Z,1012.72
2017-11-08T09:27:54.681Z,1012.74
2017-11-08T09:28:54.768Z,1012.74
2017-11-08T09:29:54.687Z,1012.71
2017-11-08T09:30:54.791Z,1012.74
2017-11-08T09:31:54.694Z,1012.75
2017-11-08T09:32:54.796Z,1012.70
2017-11-08T09:33:54.703Z,1012.75
2017-11-08T09:34:55.731Z,1012.79
2017-11-08T09:35:54.713Z,1012.86
2017-11-08T09:36:54.811Z,1012.83
2017-11-08T09:37:54.724Z,1012.86
2017-11-08T09:38:54.823Z,1012.92
2017-11-08T09:39:54.714Z,1012.85
2017-11-08T09:40:54.836Z,1012.86
2017-11-08T09:41:54.725Z,1012.90
2017-11-08T09:42:54.750Z,1012.89
2017-11-08T09:43:54.730Z,1012.88
2017-11-08T09:44:54.775Z,1012.83
2017-11-08T09:45:54.738Z,1012.79
2017-11-08T09:46:54.777Z,1012.80
2017-11-08T09:47:54.738Z,1012.77
2017-11-08T09:48:54.790Z,1012.83
2017-11-08T09:49:54.746Z,1012.92
2017-11-08T09:50:54.818Z,1012.87
2017-11-08T09:51:54.833Z,1012.94
2017-11-08T09:52:54.754Z,1012.90
2017-11-08T09:53:54.830Z,1012.90
2017-11-08T09:54:54.761Z,1012.93
2017-11-08T09:55:54.836Z,1012.97
2017-11-08T09:56:54.767Z,1012.94
2017-11-08T09:57:54.850Z,1012.95
2017-11-08T09:58:54.778Z,1012.99
2017-11-08T09:59:54.862Z,1012.94
2017-11-08T10:00:54.782Z,1012.92
2017-11-08T10:01:54.877Z,1012.95
2017-11-08T10:02:54.787Z,1013.00
2017-11-08T10:03:54.889Z,1012.97
2017-11-08T10:04:54.797Z,1013.03
2017-11-08T10:05:54.908Z,1012.99
2017-11-08T10:06:54.820Z,1013.02
2017-11-08T10:07:54.798Z,1013.00
2017-11-08T10:08:54.827Z,1013.04
2017-11-08T10:09:54.887Z,1013.04
2017-11-08T10:10:54.843Z,1013.03
2017-11-08T10:11:54.817Z,1013.06
2017-11-08T10:12:54.867Z,1013.11
2017-11-08T10:13:54.887Z,1013.12
2017-11-08T10:14:54.870Z,1013.08
2017-11-08T10:15:54.822Z,1013.09
2017-11-08T10:16:54.897Z,1013.03
2017-11-08T10:17:54.840Z,1013.05
2017-11-08T10:18:54.893Z,1013.06
2017-11-08T10:19:54.829Z,1013.10
2017-11-08T10:20:54.906Z,1013.09
2017-11-08T10:21:54.838Z,1013.07
2017-11-08T10:22:54.916Z,1013.10
2017-11-08T10:23:54.850Z,1013.09
2017-11-08T10:24:54.852Z,1013.04
2017-11-08T10:25:54.959Z,1013.04
2017-11-08T10:26:54.853Z,1012.97
2017-11-08T10:27:54.953Z,1012.96
2017-11-08T10:28:54.857Z,1013.00
2017-11-08T10:29:54.973Z,1013.03
2017-11-08T10:30:54.867Z,1013.01
2017-11-08T10:31:54.977Z,1013.00
2017-11-08T10:32:54.907Z,1012.98
2017-11-08T10:33:54.990Z,1012.95
2017-11-08T10:34:54.908Z,1012.94
2017-11-08T10:35:54.883Z,1012.97
2017-11-08T10:36:54.989Z,1012.93
2017-11-08T10:37:54.920Z,1012.93
2017-11-08T10:38:55.002Z,1012.96
2017-11-08T10:39:54.898Z,1012.96
2017-11-08T10:40:54.949Z,1013.01
2017-11-08T10:41:54.915Z,1013.01
2017-11-08T10:42:54.935Z,1012.94
2017-11-08T10:43:54.868Z,1012.96
2017-11-08T10:44:54.946Z,1013.05
2017-11-08T10:45:54.876Z,1012.96
2017-11-08T10:46:54.955Z,1012.97
2017-11-08T10:47:54.883Z,1012.98
2017-11-08T10:48:54.977Z,1012.96
2017-11-08T10:49:54.894Z,1013.01
2017-11-08T10:50:54.988Z,1012.97
2017-11-08T10:51:54.898Z,1012.99
2017-11-08T10:52:54.992Z,1012.99
2017-11-08T10:53:54.897Z,1012.96
2017-11-08T10:54:55.011Z,1012.94
2017-11-08T10:55:54.907Z,1012.94
2017-11-08T10:56:55.025Z,1012.93
2017-11-08T10:57:54.908Z,1012.96
2017-11-08T10:58:54.929Z,1012.93
2017-11-08T10:59:54.926Z,1012.97
2017-11-08T11:00:54.948Z,1012.95
2017-11-08T11:01:54.955Z,1012.91
2017-11-08T11:02:54.960Z,1012.93
2017-11-08T11:03:54.934Z,1012.94
2017-11-08T11:04:54.930Z,1012.96
2017-11-08T11:05:55.833Z,1012.98
2017-11-08T11:06:54.942Z,1012.89
2017-11-08T11:07:54.995Z,1012.86
2017-11-08T11:08:54.956Z,1012.80
2017-11-08T11:09:55.010Z,1012.77
2017-11-08T11:10:54.950Z,1012.76
2017-11-08T11:11:55.088Z,1012.74
2017-11-08T11:12:54.954Z,1012.86
2017-11-08T11:13:54.976Z,1012.86
2017-11-08T11:14:54.968Z,1012.91
2017-11-08T11:15:54.991Z,1012.89
2017-11-08T11:16:54.971Z,1012.89
2017-11-08T11:17:55.003Z,1012.97
2017-11-08T11:18:54.976Z,1012.98
2017-11-08T11:19:55.015Z,1013.02
2017-11-08T11:20:54.981Z,1013.11
2017-11-08T11:21:54.990Z,1013.13
2017-11-08T11:22:54.999Z,1013.11
2017-11-08T11:23:55.066Z,1013.11
2017-11-08T11:24:54.995Z,1013.14
2017-11-08T11:25:55.058Z,1013.08
2017-11-08T11:26:55.012Z,1013.04
2017-11-08T11:27:55.075Z,1013.07
2017-11-08T11:28:55.012Z,1013.01
2017-11-08T11:29:55.096Z,1012.97
2017-11-08T11:30:55.016Z,1012.98
2017-11-08T11:31:55.101Z,1013.06
2017-11-08T11:32:55.034Z,1013.03
2017-11-08T11:33:55.114Z,1013.09
2017-11-08T11:34:55.032Z,1013.11
2017-11-08T11:35:55.128Z,1013.12
2017-11-08T11:36:55.039Z,1013.20
2017-11-08T11:37:55.147Z,1013.21
2017-11-08T11:38:55.044Z,1013.18
2017-11-08T11:39:55.144Z,1013.15
2017-11-08T11:40:55.048Z,1013.16
2017-11-08T11:41:55.074Z,1013.13
2017-11-08T11:42:55.070Z,1013.15
2017-11-08T11:43:55.084Z,1013.06
2017-11-08T11:44:55.070Z,1013.10
2017-11-08T11:45:55.103Z,1013.01
2017-11-08T11:46:55.074Z,1013.08
2017-11-08T11:47:55.112Z,1013.08
2017-11-08T11:48:55.075Z,1013.06
2017-11-08T11:49:55.123Z,1013.05
2017-11-08T11:50:55.087Z,1013.01
2017-11-08T11:51:55.140Z,1013.00
2017-11-08T11:52:55.115Z,1012.98
2017-11-08T11:53:55.154Z,1013.03
2017-11-08T11:54:55.096Z,1013.03
2017-11-08T11:55:55.173Z,1013.06
2017-11-08T11:57:55.116Z,1013.11
2017-11-08T11:58:55.110Z,1013.07
2017-11-08T11:59:55.116Z,1013.06
2017-11-08T12:00:55.203Z,1013.13
2017-11-08T12:01:55.118Z,1013.12
2017-11-08T12:02:55.240Z,1013.13
2017-11-08T12:03:55.132Z,1013.14
2017-11-08T12:04:55.237Z,1013.14
2017-11-08T12:05:55.135Z,1013.13
2017-11-08T12:06:55.243Z,1013.13